createdAt,value
2019-01-31T00:02:14.961Z,99580.48
2019-01-31T00:05:23.582Z,99566.87
2019-01-31T00:08:45.201Z,99577.16
2019-01-31T00:11:25.489Z,99575.98
2019-01-31T00:14:21.266Z,99578.75
2019-01-31T00:17:26.226Z,99575.41
2019-01-31T00:20:23.802Z,99578.70
2019-01-31T00:23:43.211Z,99575.67
2019-01-31T00:27:08.961Z,99585.59
2019-01-31T00:30:47.097Z,99585.14
2019-01-31T00:34:07.227Z,99576.26
2019-01-31T00:37:54.384Z,99571.62
2019-01-31T00:41:07.304Z,99571.30
2019-01-31T00:44:09.266Z,99581.25
2019-01-31T00:47:23.530Z,99575.63
2019-01-31T00:50:22.387Z,99578.02
2019-01-31T00:53:25.721Z,99590.23
2019-01-31T00:56:22.384Z,99579.00
2019-01-31T00:59:14.410Z,99587.00
2019-01-31T01:02:34.665Z,99586.69
2019-01-31T01:05:54.544Z,99585.33
2019-01-31T01:08:35.833Z,99591.84
2019-01-31T01:12:04.401Z,99584.00
2019-01-31T01:15:24.228Z,99588.92
2019-01-31T01:18:34.529Z,99584.00
2019-01-31T01:21:34.781Z,99588.09
2019-01-31T01:24:25.957Z,99590.74
2019-01-31T01:27:36.628Z,99596.86
2019-01-31T01:30:32.060Z,99597.84
2019-01-31T01:33:28.268Z,99600.12
2019-01-31T01:36:25.624Z,99599.30
2019-01-31T01:39:31.473Z,99603.16
2019-01-31T01:42:45.613Z,99603.58
2019-01-31T01:46:08.725Z,99599.50
2019-01-31T01:49:07.768Z,99592.39
2019-01-31T01:52:30.937Z,99594.27
2019-01-31T01:55:48.832Z,99594.63
2019-01-31T01:58:54.924Z,99593.13
2019-01-31T02:02:06.038Z,99593.72
2019-01-31T02:05:12.830Z,99591.17
2019-01-31T02:08:32.115Z,99589.25
2019-01-31T02:11:21.709Z,99590.80
2019-01-31T02:14:20.399Z,99597.63
2019-01-31T02:17:14.687Z,99585.95
2019-01-31T02:20:29.584Z,99587.59
2019-01-31T02:23:43.211Z,99593.30
2019-01-31T02:27:31.126Z,99590.09
2019-01-31T02:30:27.675Z,99589.63
2019-01-31T02:33:51.278Z,99590.22
2019-01-31T02:36:59.762Z,99584.20
2019-01-31T02:40:11.320Z,99584.16
2019-01-31T02:43:22.984Z,99585.65
2019-01-31T02:46:33.961Z,99589.98
2019-01-31T02:49:35.962Z,99591.00
2019-01-31T02:53:05.466Z,99591.70
2019-01-31T02:56:35.573Z,99593.02
2019-01-31T03:00:01.157Z,99586.76
2019-01-31T03:03:03.882Z,99585.16
2019-01-31T03:06:18.013Z,99589.36
2019-01-31T03:09:42.000Z,99589.47
2019-01-31T03:12:39.931Z,99587.59
2019-01-31T03:16:19.273Z,99589.11
2019-01-31T03:19:10.846Z,99589.69
2019-01-31T03:22:04.856Z,99586.43
2019-01-31T03:25:16.047Z,99589.41
2019-01-31T03:28:52.797Z,99587.91
2019-01-31T03:32:24.665Z,99591.05
2019-01-31T03:35:36.264Z,99596.53
2019-01-31T03:38:56.069Z,99597.06
2019-01-31T03:42:08.207Z,99599.50
2019-01-31T03:45:30.587Z,99602.09
2019-01-31T03:48:33.386Z,99604.73
2019-01-31T03:51:50.532Z,99599.69
2019-01-31T03:54:42.274Z,99599.55
2019-01-31T03:57:39.276Z,99598.69
2019-01-31T04:00:55.563Z,99606.49
2019-01-31T04:03:45.740Z,99612.32
2019-01-31T04:06:23.840Z,99608.88
2019-01-31T04:08:54.522Z,99611.63
2019-01-31T04:11:24.567Z,99604.19
2019-01-31T04:13:54.574Z,99601.48
2019-01-31T04:16:24.729Z,99607.20
2019-01-31T04:18:54.621Z,99604.45
2019-01-31T04:21:24.670Z,99608.38
2019-01-31T04:23:55.018Z,99604.52
2019-01-31T04:26:24.979Z,99599.03
2019-01-31T04:28:55.514Z,99602.59
2019-01-31T04:31:25.413Z,99597.91
2019-01-31T04:33:55.302Z,99611.48
2019-01-31T04:36:25.468Z,99608.94
2019-01-31T04:38:55.454Z,99616.83
2019-01-31T04:41:25.358Z,99605.78
2019-01-31T04:43:55.519Z,99610.88
2019-01-31T04:46:25.398Z,99613.92
2019-01-31T04:48:55.275Z,99607.20
2019-01-31T04:51:25.181Z,99612.30
2019-01-31T04:53:55.097Z,99611.78
2019-01-31T04:56:25.007Z,99609.66
2019-01-31T04:58:54.904Z,99607.01
2019-01-31T05:01:26.588Z,99612.97
2019-01-31T05:03:56.910Z,99616.70
2019-01-31T05:06:26.810Z,99620.92
2019-01-31T05:08:56.799Z,99623.44
2019-01-31T05:11:26.707Z,99623.30
2019-01-31T05:13:56.896Z,99624.63
2019-01-31T05:16:26.744Z,99625.86
2019-01-31T05:18:57.000Z,99628.59
2019-01-31T05:21:26.894Z,99630.56
2019-01-31T05:23:56.938Z,99628.06
2019-01-31T05:26:26.833Z,99636.98
2019-01-31T05:28:57.063Z,99635.25
2019-01-31T05:31:27.043Z,99634.39
2019-01-31T05:33:56.975Z,99644.27
2019-01-31T05:36:26.918Z,99640.08
2019-01-31T05:38:56.954Z,99640.63
2019-01-31T05:41:26.862Z,99643.16
2019-01-31T05:43:56.783Z,99646.94
2019-01-31T05:46:26.792Z,99649.06
2019-01-31T05:48:56.825Z,99645.09
2019-01-31T05:51:26.785Z,99649.05
2019-01-31T05:53:56.724Z,99649.81
2019-01-31T05:56:26.668Z,99650.80
2019-01-31T05:58:56.622Z,99656.66
2019-01-31T06:01:26.507Z,99664.73
2019-01-31T06:03:56.813Z,99659.52
2019-01-31T06:06:26.965Z,99660.00
2019-01-31T06:08:57.256Z,99660.80
2019-01-31T06:11:27.135Z,99663.30
2019-01-31T06:13:57.061Z,99671.91
2019-01-31T06:16:26.973Z,99666.70
2019-01-31T06:18:57.122Z,99669.55
2019-01-31T06:21:27.090Z,99665.10
2019-01-31T06:23:57.315Z,99666.48
2019-01-31T06:26:27.268Z,99665.89
2019-01-31T06:28:57.202Z,99671.04
2019-01-31T06:31:27.522Z,99676.14
2019-01-31T06:33:57.411Z,99677.41
2019-01-31T06:36:27.363Z,99677.52
2019-01-31T06:38:57.374Z,99682.98
2019-01-31T06:41:27.439Z,99687.87
2019-01-31T06:43:57.573Z,99692.55
2019-01-31T06:46:27.725Z,99686.28
2019-01-31T06:48:58.993Z,99698.56
2019-01-31T06:51:29.089Z,99689.10
2019-01-31T06:53:59.305Z,99693.88
2019-01-31T06:56:29.312Z,99700.12
2019-01-31T06:58:59.292Z,99699.86
2019-01-31T07:01:29.669Z,99698.17
2019-01-31T07:03:59.712Z,99706.57
2019-01-31T07:06:29.662Z,99701.72
2019-01-31T07:08:59.649Z,99703.01
2019-01-31T07:11:30.412Z,99696.41
2019-01-31T07:14:00.702Z,99701.78
2019-01-31T07:16:30.605Z,99699.75
2019-01-31T07:19:00.594Z,99703.15
2019-01-31T07:21:30.974Z,99703.63
2019-01-31T07:24:00.878Z,99704.20
2019-01-31T07:26:30.819Z,99705.59
2019-01-31T07:29:00.846Z,99708.95
2019-01-31T07:31:30.892Z,99715.89
2019-01-31T07:34:00.922Z,99705.53
2019-01-31T07:36:30.969Z,99704.33
2019-01-31T07:39:00.902Z,99699.77
2019-01-31T07:41:41.113Z,99705.11
2019-01-31T07:44:02.508Z,99717.28
2019-01-31T07:46:32.449Z,99708.66
2019-01-31T07:49:02.691Z,99714.58
2019-01-31T07:51:32.818Z,99718.34
2019-01-31T07:54:02.779Z,99709.33
2019-01-31T07:56:33.008Z,99708.95
2019-01-31T07:59:02.867Z,99728.48
2019-01-31T08:01:33.068Z,99719.43
2019-01-31T08:04:03.267Z,99716.50
2019-01-31T08:06:33.407Z,99718.98
2019-01-31T08:09:03.877Z,99712.66
2019-01-31T08:11:33.791Z,99719.26
2019-01-31T08:14:04.483Z,99721.52
2019-01-31T08:16:34.505Z,99727.67
2019-01-31T08:19:05.036Z,99734.47
2019-01-31T08:21:34.940Z,99724.78
2019-01-31T08:24:05.380Z,99738.31
2019-01-31T08:26:35.337Z,99743.77
2019-01-31T08:29:05.497Z,99735.18
2019-01-31T08:31:35.558Z,99747.22
2019-01-31T08:34:05.823Z,99743.28
2019-01-31T08:36:35.988Z,99738.78
2019-01-31T08:39:08.996Z,99740.65
2019-01-31T08:41:38.998Z,99742.25
2019-01-31T08:44:09.228Z,99742.25
2019-01-31T08:46:39.447Z,99741.11
2019-01-31T08:49:09.885Z,99747.48
2019-01-31T08:51:39.778Z,99744.64
2019-01-31T08:54:09.728Z,99749.58
2019-01-31T08:56:39.615Z,99746.86
2019-01-31T08:59:09.673Z,99749.91
2019-01-31T09:01:40.069Z,99746.64
2019-01-31T09:04:09.978Z,99752.26
2019-01-31T09:06:39.971Z,99745.41
2019-01-31T09:09:14.027Z,99748.30
2019-01-31T09:11:44.501Z,99763.94
2019-01-31T09:14:14.405Z,99775.92
2019-01-31T09:16:44.394Z,99782.95
2019-01-31T09:19:14.360Z,99773.09
2019-01-31T09:22:01.260Z,99766.42
2019-01-31T09:25:15.572Z,99776.20
2019-01-31T09:28:22.133Z,99766.44
2019-01-31T09:31:44.939Z,99769.39
2019-01-31T09:34:53.029Z,99778.08
2019-01-31T09:38:17.876Z,99769.34
2019-01-31T09:41:41.750Z,99771.77
2019-01-31T09:44:51.948Z,99770.62
2019-01-31T09:48:15.606Z,99775.18
2019-01-31T09:51:48.839Z,99764.36
2019-01-31T09:54:48.669Z,99766.75
2019-01-31T09:58:28.087Z,99772.41
2019-01-31T10:01:59.562Z,99769.44
2019-01-31T10:05:12.218Z,99768.02
2019-01-31T10:08:13.007Z,99766.67
2019-01-31T10:11:21.772Z,99757.75
2019-01-31T10:14:47.993Z,99760.09
2019-01-31T10:18:11.598Z,99762.28
2019-01-31T10:21:48.512Z,99763.07
2019-01-31T10:25:19.171Z,99763.03
2019-01-31T10:28:49.660Z,99759.47
2019-01-31T10:32:12.862Z,99765.27
2019-01-31T10:35:05.481Z,99755.41
2019-01-31T10:38:00.525Z,99761.70
2019-01-31T10:41:20.514Z,99766.58
2019-01-31T10:45:02.356Z,99753.20
2019-01-31T10:48:00.822Z,99748.27
2019-01-31T10:51:27.791Z,99746.45
2019-01-31T10:54:49.227Z,99748.48
2019-01-31T10:57:41.801Z,99746.66
2019-01-31T11:00:52.487Z,99748.20
2019-01-31T11:03:51.893Z,99748.83
2019-01-31T11:07:16.421Z,99742.02
2019-01-31T11:10:37.264Z,99738.34
2019-01-31T11:13:59.433Z,99741.86
2019-01-31T11:16:56.398Z,99737.88
2019-01-31T11:20:09.903Z,99730.34
2019-01-31T11:23:14.777Z,99742.10
2019-01-31T11:26:41.586Z,99737.65
2019-01-31T11:29:55.350Z,99724.94
2019-01-31T11:33:36.584Z,99732.48
2019-01-31T11:36:50.931Z,99731.02
2019-01-31T11:40:27.287Z,99732.77
2019-01-31T11:44:12.797Z,99729.47
2019-01-31T11:47:20.291Z,99724.84
2019-01-31T11:50:39.784Z,99729.05
2019-01-31T11:53:41.711Z,99725.27
2019-01-31T11:56:51.094Z,99725.38
2019-01-31T11:59:20.992Z,99722.02
2019-01-31T12:01:50.954Z,99722.05
2019-01-31T12:04:21.368Z,99725.78
2019-01-31T12:06:51.776Z,99721.00
2019-01-31T12:09:22.824Z,99723.17
2019-01-31T12:11:53.199Z,99725.78
2019-01-31T12:14:23.385Z,99720.33
2019-01-31T12:16:53.417Z,99722.88
2019-01-31T12:19:23.622Z,99718.58
2019-01-31T12:21:54.198Z,99712.83
2019-01-31T12:24:24.167Z,99717.02
2019-01-31T12:26:54.705Z,99722.02
2019-01-31T12:29:24.871Z,99714.84
2019-01-31T12:31:55.087Z,99719.13
2019-01-31T12:34:25.375Z,99717.67
2019-01-31T12:36:55.644Z,99718.30
2019-01-31T12:39:25.679Z,99712.33
2019-01-31T12:41:56.093Z,99711.52
2019-01-31T12:44:26.413Z,99706.84
2019-01-31T12:46:56.323Z,99703.06
2019-01-31T12:49:26.358Z,99702.20
2019-01-31T12:51:56.775Z,99701.32
2019-01-31T12:54:27.070Z,99704.70
2019-01-31T12:56:57.419Z,99705.44
2019-01-31T12:59:27.466Z,99700.03
2019-01-31T13:01:57.406Z,99694.93
2019-01-31T13:04:27.520Z,99700.92
2019-01-31T13:06:57.578Z,99694.55
2019-01-31T13:09:28.399Z,99693.67
2019-01-31T13:11:58.606Z,99701.34
2019-01-31T13:14:28.728Z,99699.16
2019-01-31T13:16:58.739Z,99700.33
2019-01-31T13:19:28.699Z,99709.78
2019-01-31T13:21:59.245Z,99702.97
2019-01-31T13:24:29.205Z,99703.27
2019-01-31T13:26:59.457Z,99700.32
2019-01-31T13:29:29.319Z,99695.05
2019-01-31T13:31:59.427Z,99692.84
2019-01-31T13:34:29.501Z,99691.70
2019-01-31T13:36:59.572Z,99700.22
2019-01-31T13:39:29.564Z,99700.93
2019-01-31T13:41:59.532Z,99699.90
2019-01-31T13:44:33.122Z,99701.17
2019-01-31T13:47:03.606Z,99705.01
2019-01-31T13:49:33.670Z,99706.31
2019-01-31T13:52:03.665Z,99708.91
2019-01-31T13:54:33.732Z,99707.14
2019-01-31T13:57:11.008Z,99710.05
2019-01-31T13:59:50.776Z,99714.27
2019-01-31T14:02:25.856Z,99714.35
2019-01-31T14:04:56.815Z,99710.84
2019-01-31T14:07:27.639Z,99716.45
2019-01-31T14:10:04.910Z,99716.55
2019-01-31T14:12:32.361Z,99714.48
2019-01-31T14:15:02.563Z,99716.16
2019-01-31T14:17:32.472Z,99713.19
2019-01-31T14:20:02.628Z,99719.52
2019-01-31T14:22:42.809Z,99720.91
2019-01-31T14:25:05.929Z,99724.75
2019-01-31T14:27:36.045Z,99721.23
2019-01-31T14:30:14.507Z,99730.70
2019-01-31T14:32:45.114Z,99725.73
2019-01-31T14:35:15.280Z,99724.63
2019-01-31T14:37:45.967Z,99718.27
2019-01-31T14:40:17.475Z,99724.09
2019-01-31T14:42:47.473Z,99726.42
2019-01-31T14:45:17.630Z,99733.98
2019-01-31T14:47:47.528Z,99734.73
2019-01-31T14:50:25.285Z,99732.32
2019-01-31T14:52:57.010Z,99726.22
2019-01-31T14:55:27.351Z,99731.81
2019-01-31T14:57:58.011Z,99732.34
2019-01-31T15:00:30.527Z,99722.00
2019-01-31T15:03:02.326Z,99729.22
2019-01-31T15:05:33.197Z,99729.58
2019-01-31T15:08:03.753Z,99727.23
2019-01-31T15:10:34.479Z,99728.80
2019-01-31T15:13:05.983Z,99737.15
2019-01-31T15:15:35.997Z,99737.62
2019-01-31T15:18:09.558Z,99733.11
2019-01-31T15:20:44.374Z,99737.33
2019-01-31T15:23:17.527Z,99740.55
2019-01-31T15:25:47.576Z,99735.94
2019-01-31T15:28:18.015Z,99741.69
2019-01-31T15:30:48.011Z,99741.47
2019-01-31T15:33:18.509Z,99740.27
2019-01-31T15:35:49.285Z,99735.86
2019-01-31T15:38:20.012Z,99732.56
2019-01-31T15:40:50.562Z,99739.58
2019-01-31T15:43:21.231Z,99732.54
2019-01-31T15:45:51.695Z,99730.56
2019-01-31T15:48:23.781Z,99727.20
2019-01-31T15:50:54.700Z,99734.41
2019-01-31T15:53:25.123Z,99732.47
2019-01-31T15:55:56.490Z,99733.14
2019-01-31T15:58:26.498Z,99738.87
2019-01-31T16:00:58.596Z,99736.80
2019-01-31T16:03:29.029Z,99737.29
2019-01-31T16:05:59.091Z,99736.13
2019-01-31T16:08:29.588Z,99742.41
2019-01-31T16:10:59.658Z,99746.34
2019-01-31T16:13:29.642Z,99742.09
2019-01-31T16:16:00.698Z,99742.23
2019-01-31T16:18:30.742Z,99746.81
2019-01-31T16:21:01.532Z,99738.80
2019-01-31T16:23:32.415Z,99736.31
2019-01-31T16:26:02.375Z,99740.14
2019-01-31T16:28:33.760Z,99739.53
2019-01-31T16:31:04.187Z,99739.03
2019-01-31T16:33:34.186Z,99737.56
2019-01-31T16:36:04.707Z,99744.64
2019-01-31T16:38:34.669Z,99742.10
2019-01-31T16:41:05.114Z,99740.59
2019-01-31T16:43:35.617Z,99741.55
2019-01-31T16:46:06.088Z,99742.66
2019-01-31T16:48:35.995Z,99740.31
2019-01-31T16:51:06.099Z,99740.25
2019-01-31T16:53:35.981Z,99745.08
2019-01-31T16:56:06.055Z,99741.77
2019-01-31T16:58:36.139Z,99738.62
2019-01-31T17:01:07.116Z,99747.19
2019-01-31T17:03:37.234Z,99741.53
2019-01-31T17:06:07.273Z,99742.81
2019-01-31T17:08:38.494Z,99742.97
2019-01-31T17:11:08.438Z,99739.72
2019-01-31T17:13:38.636Z,99741.94
2019-01-31T17:16:09.694Z,99736.54
2019-01-31T17:18:39.739Z,99742.86
2019-01-31T17:21:10.293Z,99744.27
2019-01-31T17:23:40.282Z,99746.91
2019-01-31T17:26:10.493Z,99750.80
2019-01-31T17:28:40.644Z,99759.00
2019-01-31T17:31:11.375Z,99755.83
2019-01-31T17:33:42.173Z,99747.56
2019-01-31T17:36:12.569Z,99750.78
2019-01-31T17:38:42.727Z,99739.11
2019-01-31T17:41:12.944Z,99748.25
2019-01-31T17:43:43.184Z,99750.45
2019-01-31T17:46:13.587Z,99738.78
2019-01-31T17:48:43.526Z,99753.48
2019-01-31T17:51:15.236Z,99745.89
2019-01-31T17:53:46.105Z,99746.31
2019-01-31T17:56:16.081Z,99737.03
2019-01-31T17:58:46.873Z,99747.43
2019-01-31T18:01:17.012Z,99753.83
2019-01-31T18:03:47.060Z,99744.80
2019-01-31T18:06:18.841Z,99750.22
2019-01-31T18:08:49.909Z,99749.98
2019-01-31T18:11:20.049Z,99754.01
2019-01-31T18:13:52.662Z,99742.14
2019-01-31T18:16:22.971Z,99740.78
2019-01-31T18:18:53.083Z,99743.42
2019-01-31T18:21:23.026Z,99753.70
2019-01-31T18:23:53.252Z,99752.50
2019-01-31T18:26:23.603Z,99752.56
2019-01-31T18:28:53.503Z,99746.08
2019-01-31T18:31:23.519Z,99753.22
2019-01-31T18:33:53.431Z,99738.86
2019-01-31T18:36:24.994Z,99738.46
2019-01-31T18:38:57.609Z,99738.50
2019-01-31T18:41:29.421Z,99737.88
2019-01-31T18:43:59.366Z,99735.20
2019-01-31T18:46:29.319Z,99735.88
2019-01-31T18:48:59.303Z,99732.65
2019-01-31T18:51:30.163Z,99734.13
2019-01-31T18:54:01.410Z,99740.27
2019-01-31T18:56:31.741Z,99728.71
2019-01-31T18:59:02.385Z,99727.66
2019-01-31T19:01:32.571Z,99733.81
2019-01-31T19:04:02.887Z,99730.25
2019-01-31T19:06:33.965Z,99731.56
2019-01-31T19:09:05.247Z,99732.20
2019-01-31T19:11:35.293Z,99740.08
2019-01-31T19:14:05.946Z,99736.05
2019-01-31T19:16:35.841Z,99729.83
2019-01-31T19:19:06.195Z,99723.18
2019-01-31T19:21:36.163Z,99726.57
2019-01-31T19:24:06.608Z,99722.63
2019-01-31T19:26:36.534Z,99722.91
2019-01-31T19:29:07.440Z,99731.88
2019-01-31T19:31:40.208Z,99725.19
2019-01-31T19:34:09.411Z,99721.41
2019-01-31T19:36:39.372Z,99723.86
2019-01-31T19:39:15.769Z,99724.47
2019-01-31T19:41:45.800Z,99720.84
2019-01-31T19:44:15.708Z,99722.62
2019-01-31T19:46:45.641Z,99720.27
2019-01-31T19:49:15.751Z,99718.52
2019-01-31T19:51:46.135Z,99714.08
2019-01-31T19:54:18.545Z,99719.33
2019-01-31T19:56:48.796Z,99723.27
2019-01-31T19:59:18.811Z,99710.64
2019-01-31T20:01:50.767Z,99710.48
2019-01-31T20:04:20.552Z,99714.53
2019-01-31T20:06:50.768Z,99715.43
2019-01-31T20:09:24.691Z,99715.88
2019-01-31T20:11:54.675Z,99702.86
2019-01-31T20:14:25.113Z,99702.64
2019-01-31T20:16:55.073Z,99703.02
2019-01-31T20:19:25.276Z,99702.05
2019-01-31T20:21:55.186Z,99713.53
2019-01-31T20:24:25.668Z,99711.33
2019-01-31T20:26:55.897Z,99712.06
2019-01-31T20:29:26.069Z,99713.47
2019-01-31T20:31:56.402Z,99701.25
2019-01-31T20:34:26.454Z,99706.78
2019-01-31T20:36:56.558Z,99708.72
2019-01-31T20:39:26.807Z,99713.88
2019-01-31T20:41:56.939Z,99702.42
2019-01-31T20:44:26.976Z,99710.65
2019-01-31T20:46:56.967Z,99705.88
2019-01-31T20:49:26.955Z,99707.47
2019-01-31T20:51:56.948Z,99702.80
2019-01-31T20:54:26.845Z,99711.39
2019-01-31T20:56:56.898Z,99713.77
2019-01-31T20:59:27.007Z,99710.84
2019-01-31T21:01:56.883Z,99714.65
2019-01-31T21:04:26.919Z,99705.66
2019-01-31T21:06:57.001Z,99704.53
2019-01-31T21:09:28.685Z,99700.66
2019-01-31T21:11:58.949Z,99707.47
2019-01-31T21:14:29.288Z,99705.20
2019-01-31T21:16:59.444Z,99700.94
2019-01-31T21:19:30.764Z,99695.80
2019-01-31T21:22:00.784Z,99700.45
2019-01-31T21:24:30.734Z,99709.39
2019-01-31T21:27:00.831Z,99711.09
2019-01-31T21:29:30.782Z,99701.94
2019-01-31T21:32:00.892Z,99713.83
2019-01-31T21:34:30.893Z,99699.83
2019-01-31T21:37:00.861Z,99704.53
2019-01-31T21:39:30.783Z,99710.91
2019-01-31T21:42:00.684Z,99708.05
2019-01-31T21:44:30.776Z,99715.45
2019-01-31T21:47:03.339Z,99718.61
2019-01-31T21:49:32.569Z,99713.88
2019-01-31T21:52:02.493Z,99707.98
2019-01-31T21:54:32.412Z,99708.11
2019-01-31T21:57:02.556Z,99707.89
2019-01-31T21:59:32.641Z,99704.19
2019-01-31T22:02:02.727Z,99708.55
2019-01-31T22:04:32.642Z,99703.03
2019-01-31T22:07:02.943Z,99702.19
2019-01-31T22:09:32.847Z,99708.42
2019-01-31T22:12:02.850Z,99707.08
2019-01-31T22:14:32.729Z,99715.16
2019-01-31T22:17:13.924Z,99704.53
2019-01-31T22:19:34.392Z,99693.87
2019-01-31T22:22:04.693Z,99696.36
2019-01-31T22:24:34.585Z,99692.84
2019-01-31T22:27:04.588Z,99686.73
2019-01-31T22:29:34.764Z,99686.11
2019-01-31T22:32:04.758Z,99689.61
2019-01-31T22:34:35.010Z,99684.41
2019-01-31T22:37:05.436Z,99683.34
2019-01-31T22:39:35.631Z,99678.64
2019-01-31T22:42:05.707Z,99673.78
2019-01-31T22:44:35.586Z,99678.77
2019-01-31T22:47:05.740Z,99674.75
2019-01-31T22:49:35.772Z,99671.01
2019-01-31T22:52:05.968Z,99674.44
2019-01-31T22:54:35.932Z,99678.30
2019-01-31T22:57:05.978Z,99679.85
2019-01-31T22:59:35.858Z,99679.66
2019-01-31T23:02:14.155Z,99680.26
2019-01-31T23:04:44.367Z,99679.80
2019-01-31T23:07:14.320Z,99680.02
2019-01-31T23:09:44.193Z,99677.19
2019-01-31T23:12:14.084Z,99665.42
2019-01-31T23:14:45.184Z,99664.59
2019-01-31T23:17:15.183Z,99663.22
2019-01-31T23:19:45.204Z,99654.31
2019-01-31T23:22:15.434Z,99650.99
2019-01-31T23:24:45.469Z,99661.66
2019-01-31T23:27:19.764Z,99659.62
2019-01-31T23:29:49.703Z,99661.36
2019-01-31T23:32:19.830Z,99659.03
2019-01-31T23:34:49.987Z,99654.80
2019-01-31T23:37:19.897Z,99654.48
2019-01-31T23:39:49.846Z,99658.97
2019-01-31T23:42:19.885Z,99657.77
2019-01-31T23:44:49.771Z,99655.46
2019-01-31T23:47:19.754Z,99650.14
2019-01-31T23:49:49.661Z,99644.77
2019-01-31T23:52:19.945Z,99639.86
2019-01-31T23:54:49.841Z,99640.84
2019-01-31T23:57:19.757Z,99631.92
2019-01-31T23:59:49.684Z,99640.25
